Time;durP1;ratioP1;P1;durP2;ratioP2;P2;SDS_P1;SDS_P2;PMS_P1;PMS_P2;Temp;Humidity;BMP_temperature;BMP_pressure;BME280_temperature;BME280_humidity;BME280_pressure;Samples;Min_cycle;Max_cycle;Signal;HPM_P1;HPM_P2
2021/06/22 00:00:09;;;;;;;4.40;2.60;;;14.50;99.90;;;;;;5088036;28;20217;-73
2021/06/22 00:02:37;;;;;;;5.03;2.83;;;14.60;99.90;;;;;;5086158;28;20199;-74
2021/06/22 00:05:06;;;;;;;3.80;2.80;;;14.40;99.90;;;;;;5089911;28;20294;-74
2021/06/22 00:07:34;;;;;;;4.33;2.93;;;14.50;99.90;;;;;;5092130;28;20197;-73
2021/06/22 00:10:01;;;;;;;3.80;2.50;;;14.50;99.90;;;;;;5090746;28;20293;-74
2021/06/22 00:12:27;;;;;;;4.97;2.80;;;14.50;99.90;;;;;;5091969;28;20547;-74
2021/06/22 00:14:55;;;;;;;3.10;2.57;;;14.50;99.90;;;;;;5089503;28;20190;-74
2021/06/22 00:17:21;;;;;;;6.63;3.07;;;14.50;99.90;;;;;;5091112;28;20201;-74
2021/06/22 00:19:48;;;;;;;3.67;2.97;;;14.50;99.90;;;;;;5079300;28;20670;-73
2021/06/22 00:22:15;;;;;;;6.97;3.30;;;14.40;99.90;;;;;;5077308;28;20198;-74
2021/06/22 00:24:43;;;;;;;4.57;3.53;;;14.40;99.90;;;;;;5088478;28;20226;-73
2021/06/22 00:27:12;;;;;;;6.93;3.50;;;14.40;99.90;;;;;;5076225;28;20292;-74
2021/06/22 00:29:42;;;;;;;4.53;2.83;;;14.30;99.90;;;;;;5088223;28;20237;-73
2021/06/22 00:32:10;;;;;;;6.30;3.20;;;14.20;99.90;;;;;;5078082;28;20206;-73
2021/06/22 00:34:37;;;;;;;4.70;3.30;;;14.30;99.90;;;;;;5081581;28;20222;-73
2021/06/22 00:37:05;;;;;;;7.20;3.87;;;14.20;99.90;;;;;;5091732;28;20202;-73
2021/06/22 00:39:31;;;;;;;6.20;3.97;;;14.10;99.90;;;;;;5085842;28;20630;-73
2021/06/22 00:42:00;;;;;;;5.60;4.00;;;14.10;99.90;;;;;;5084981;28;20201;-73
2021/06/22 00:44:27;;;;;;;6.97;3.70;;;14.00;99.90;;;;;;5080027;28;20201;-73
2021/06/22 00:46:53;;;;;;;9.60;4.00;;;14.10;99.90;;;;;;5087215;28;20857;-73
2021/06/22 00:49:20;;;;;;;5.50;3.93;;;13.90;99.90;;;;;;5090000;28;20198;-73
2021/06/22 00:51:47;;;;;;;7.03;4.10;;;14.10;99.90;;;;;;5080557;28;20198;-73
2021/06/22 00:54:15;;;;;;;7.37;4.00;;;13.90;99.90;;;;;;5090654;28;20212;-73
2021/06/22 00:56:42;;;;;;;8.07;4.00;;;14.00;99.90;;;;;;5086064;28;20197;-73
2021/06/22 00:59:11;;;;;;;7.50;4.43;;;13.90;99.90;;;;;;5091409;28;20651;-73
2021/06/22 01:01:37;;;;;;;12.93;4.73;;;13.90;99.90;;;;;;5078170;28;20194;-73
2021/06/22 01:04:04;;;;;;;11.27;4.30;;;13.90;99.90;;;;;;5091177;28;20205;-71
2021/06/22 01:06:31;;;;;;;9.67;4.40;;;13.80;99.90;;;;;;5095218;28;20231;-70
2021/06/22 01:08:58;;;;;;;9.40;4.77;;;13.80;99.90;;;;;;5082784;28;20595;-70
2021/06/22 01:11:25;;;;;;;13.63;5.47;;;13.70;99.90;;;;;;5086652;28;20667;-70
2021/06/22 01:13:52;;;;;;;8.43;5.47;;;13.70;99.90;;;;;;5089782;28;20708;-71
2021/06/22 01:16:25;;;;;;;7.60;5.20;;;13.80;99.90;;;;;;5088107;28;20205;-71
2021/06/22 01:18:59;;;;;;;8.07;5.20;;;13.80;99.90;;;;;;5089487;28;20193;-71
2021/06/22 01:21:29;;;;;;;12.50;6.40;;;13.90;99.90;;;;;;5089717;28;20198;-70
2021/06/22 01:23:56;;;;;;;9.67;5.93;;;14.00;99.90;;;;;;5089100;28;20586;-70
2021/06/22 01:26:23;;;;;;;9.67;6.60;;;14.00;99.90;;;;;;5093985;28;20217;-70
2021/06/22 01:28:49;;;;;;;9.93;4.90;;;14.00;99.90;;;;;;5087180;28;20199;-70
2021/06/22 01:31:17;;;;;;;7.53;4.43;;;13.80;99.90;;;;;;5092543;28;20667;-70
2021/06/22 01:33:46;;;;;;;7.60;4.90;;;14.00;99.90;;;;;;5086173;28;20205;-70
2021/06/22 01:36:14;;;;;;;11.50;4.90;;;13.70;99.90;;;;;;5094258;28;20787;-70
2021/06/22 01:38:42;;;;;;;9.40;5.40;;;13.80;99.90;;;;;;5091055;28;20565;-70
2021/06/22 01:41:09;;;;;;;9.20;5.20;;;13.80;99.90;;;;;;5094299;28;20685;-70
2021/06/22 01:43:36;;;;;;;8.13;5.00;;;13.80;99.90;;;;;;5086428;28;20201;-70
2021/06/22 01:46:03;;;;;;;10.80;4.97;;;13.70;99.90;;;;;;5088934;28;20229;-70
2021/06/22 01:48:30;;;;;;;9.27;5.53;;;13.80;99.90;;;;;;5081912;28;20205;-70
2021/06/22 01:50:57;;;;;;;9.50;5.73;;;13.90;99.90;;;;;;5081475;28;20206;-70
2021/06/22 01:53:24;;;;;;;9.07;5.80;;;13.80;99.90;;;;;;5094074;28;20206;-70
2021/06/22 01:55:53;;;;;;;9.67;6.17;;;13.80;99.90;;;;;;5075138;28;20191;-70
2021/06/22 01:58:21;;;;;;;11.63;6.27;;;13.70;99.90;;;;;;5076389;28;20648;-70
2021/06/22 02:00:51;;;;;;;9.67;5.10;;;13.70;99.90;;;;;;5088400;28;20213;-70
2021/06/22 02:03:19;;;;;;;11.40;5.67;;;13.70;99.90;;;;;;5088470;28;20214;-70
2021/06/22 02:05:47;;;;;;;9.07;5.77;;;13.90;99.90;;;;;;5113743;22;20229;-72
2021/06/22 02:08:15;;;;;;;12.20;6.00;;;14.00;99.90;;;;;;5081745;28;20622;-72
2021/06/22 02:10:42;;;;;;;8.73;5.83;;;14.00;99.90;;;;;;5080950;28;20212;-72
2021/06/22 02:13:11;;;;;;;12.17;5.63;;;13.90;99.90;;;;;;5085098;28;20659;-73
2021/06/22 02:15:39;;;;;;;11.33;5.77;;;13.80;99.90;;;;;;5085642;28;20568;-73
2021/06/22 02:18:07;;;;;;;11.57;5.80;;;13.90;99.90;;;;;;5082227;28;20559;-73
2021/06/22 02:20:34;;;;;;;12.33;6.07;;;13.80;99.90;;;;;;5085334;28;20200;-74
2021/06/22 02:23:01;;;;;;;10.50;6.13;;;13.90;99.90;;;;;;5086802;28;20208;-74
2021/06/22 02:25:28;;;;;;;11.23;6.23;;;14.00;99.90;;;;;;5090462;28;20218;-73
2021/06/22 02:28:02;;;;;;;11.13;6.37;;;14.10;99.90;;;;;;5090944;28;20206;-73
2021/06/22 02:30:31;;;;;;;12.73;5.90;;;14.00;99.90;;;;;;5080456;28;20659;-72
2021/06/22 02:32:58;;;;;;;12.70;5.27;;;13.90;99.90;;;;;;5075305;28;20567;-73
2021/06/22 02:35:25;;;;;;;10.37;5.80;;;13.90;99.90;;;;;;5088713;28;20193;-72
2021/06/22 02:37:52;;;;;;;8.93;5.57;;;13.90;99.90;;;;;;5086716;28;20201;-72
2021/06/22 02:40:20;;;;;;;13.20;5.73;;;13.70;99.90;;;;;;5092784;28;20216;-72
2021/06/22 02:42:47;;;;;;;12.07;5.43;;;13.70;99.90;;;;;;5090505;28;20212;-72
2021/06/22 02:45:15;;;;;;;10.30;4.97;;;13.90;99.90;;;;;;5090528;28;20258;-72
2021/06/22 02:47:44;;;;;;;10.77;4.93;;;13.80;99.90;;;;;;5080119;28;20400;-74
2021/06/22 02:50:12;;;;;;;11.17;4.97;;;13.80;99.90;;;;;;5086395;28;20198;-72
2021/06/22 02:52:39;;;;;;;10.47;5.50;;;13.80;99.90;;;;;;5075634;28;20204;-72
2021/06/22 02:55:07;;;;;;;9.67;5.30;;;13.80;99.90;;;;;;5084074;28;20554;-72
2021/06/22 02:57:34;;;;;;;13.00;6.20;;;13.70;99.90;;;;;;5089655;28;20204;-72
2021/06/22 03:00:01;;;;;;;10.40;6.00;;;13.80;99.90;;;;;;5073089;28;20671;-72
2021/06/22 03:02:27;;;;;;;13.97;5.53;;;13.90;99.90;;;;;;5079231;28;20289;-72
2021/06/22 03:04:56;;;;;;;13.80;6.07;;;13.90;99.90;;;;;;5084869;28;20210;-72
2021/06/22 03:07:22;;;;;;;10.97;5.23;;;13.80;99.90;;;;;;5091577;28;20247;-72
2021/06/22 03:09:49;;;;;;;13.50;5.87;;;13.90;99.90;;;;;;5091818;28;20655;-72
2021/06/22 03:12:16;;;;;;;11.10;6.03;;;13.90;99.90;;;;;;5091668;28;20581;-73
2021/06/22 03:14:43;;;;;;;11.37;5.67;;;14.00;99.90;;;;;;5091000;28;20202;-72
2021/06/22 03:17:09;;;;;;;9.00;5.27;;;14.00;99.90;;;;;;5087150;28;20202;-72
2021/06/22 03:19:36;;;;;;;13.27;5.80;;;13.90;99.90;;;;;;5082617;28;20206;-73
2021/06/22 03:22:05;;;;;;;9.40;5.43;;;14.00;99.90;;;;;;5089673;28;20201;-72
2021/06/22 03:24:31;;;;;;;11.50;6.00;;;13.90;99.90;;;;;;5088512;28;20194;-73
2021/06/22 03:26:58;;;;;;;16.17;5.90;;;14.00;99.90;;;;;;5087589;28;20316;-72
2021/06/22 03:29:25;;;;;;;9.73;5.67;;;14.00;99.90;;;;;;5090815;28;20208;-72
2021/06/22 03:31:52;;;;;;;10.30;5.43;;;14.00;99.90;;;;;;5085404;28;20197;-72
2021/06/22 03:34:19;;;;;;;11.30;5.80;;;14.00;99.90;;;;;;5087495;28;20201;-72
2021/06/22 03:36:46;;;;;;;13.27;6.03;;;14.00;99.90;;;;;;5085084;28;20208;-72
2021/06/22 03:39:15;;;;;;;11.23;5.73;;;14.10;99.90;;;;;;5083951;28;20664;-72
2021/06/22 03:41:41;;;;;;;12.77;5.93;;;14.00;99.90;;;;;;5089207;28;20198;-72
2021/06/22 03:44:09;;;;;;;16.47;6.73;;;14.00;99.90;;;;;;5091326;28;20201;-72
2021/06/22 03:46:35;;;;;;;14.87;6.20;;;14.00;99.90;;;;;;5086575;28;20627;-72
2021/06/22 03:49:03;;;;;;;11.17;5.97;;;14.10;99.90;;;;;;5077266;28;20216;-72
2021/06/22 03:51:29;;;;;;;12.77;6.10;;;14.00;99.90;;;;;;5080736;28;20202;-72
2021/06/22 03:53:56;;;;;;;12.07;6.00;;;14.10;99.90;;;;;;5086065;28;20197;-72
2021/06/22 03:56:25;;;;;;;15.47;6.30;;;14.10;99.90;;;;;;5090708;28;20646;-73
2021/06/22 03:58:52;;;;;;;12.90;5.90;;;14.10;99.90;;;;;;5082840;28;20202;-72
2021/06/22 04:01:19;;;;;;;12.83;6.20;;;14.20;99.90;;;;;;5062683;28;20206;-71
2021/06/22 04:03:45;;;;;;;10.73;5.87;;;14.20;99.90;;;;;;5076436;28;20198;-73
2021/06/22 04:06:12;;;;;;;13.70;6.10;;;14.20;99.90;;;;;;5082491;28;20679;-71
2021/06/22 04:08:41;;;;;;;15.03;5.87;;;14.10;99.90;;;;;;5083330;28;20669;-71
2021/06/22 04:11:07;;;;;;;12.97;6.80;;;14.50;99.90;;;;;;5086416;28;20651;-71
2021/06/22 04:13:36;;;;;;;11.63;6.23;;;14.30;99.90;;;;;;5073214;28;20222;-71
2021/06/22 04:16:03;;;;;;;10.97;6.00;;;14.10;99.90;;;;;;5073499;28;20198;-73
2021/06/22 04:18:30;;;;;;;13.03;5.63;;;14.10;99.90;;;;;;5076152;28;20198;-69
2021/06/22 04:20:57;;;;;;;9.13;5.40;;;14.20;99.90;;;;;;5075336;28;20633;-69
2021/06/22 04:23:24;;;;;;;10.27;5.80;;;14.20;99.90;;;;;;5080450;28;20194;-69
2021/06/22 04:25:51;;;;;;;15.47;6.87;;;14.10;99.90;;;;;;5090167;28;20207;-69
2021/06/22 04:28:19;;;;;;;9.27;5.10;;;14.20;99.90;;;;;;5084973;28;20204;-69
2021/06/22 04:30:47;;;;;;;11.63;5.33;;;14.10;99.90;;;;;;5081418;28;20213;-69
2021/06/22 04:33:14;;;;;;;15.20;5.80;;;14.10;99.90;;;;;;5083963;28;20213;-69
2021/06/22 04:35:41;;;;;;;12.97;5.80;;;14.20;99.90;;;;;;5079035;28;20212;-69
2021/06/22 04:38:09;;;;;;;10.83;5.73;;;14.10;99.90;;;;;;5084925;28;20216;-69
2021/06/22 04:40:38;;;;;;;14.97;6.37;;;14.30;99.90;;;;;;5089581;28;20667;-69
2021/06/22 04:43:05;;;;;;;10.13;5.03;;;14.30;99.90;;;;;;5090968;28;20686;-69
2021/06/22 04:45:33;;;;;;;13.07;6.00;;;14.50;99.90;;;;;;5089929;28;20575;-69
2021/06/22 04:48:01;;;;;;;17.33;6.27;;;14.40;99.90;;;;;;5089447;28;20227;-69
2021/06/22 04:50:28;;;;;;;13.27;5.60;;;14.30;99.90;;;;;;5086438;28;20214;-69
2021/06/22 04:52:55;;;;;;;11.67;5.17;;;14.30;99.90;;;;;;5091479;28;20201;-69
2021/06/22 04:55:24;;;;;;;14.00;4.80;;;14.30;99.90;;;;;;5086954;28;20206;-69
2021/06/22 04:57:52;;;;;;;9.87;4.93;;;14.30;99.90;;;;;;5087668;28;20536;-69
2021/06/22 05:00:20;;;;;;;11.47;5.27;;;14.30;99.90;;;;;;5087818;28;20663;-69
2021/06/22 05:02:47;;;;;;;7.73;4.63;;;14.40;99.90;;;;;;5072867;28;20553;-69
2021/06/22 05:05:15;;;;;;;15.77;5.23;;;14.30;99.90;;;;;;5082563;28;20220;-69
2021/06/22 05:07:42;;;;;;;14.03;4.90;;;14.30;99.90;;;;;;5073980;28;20213;-69
2021/06/22 05:10:11;;;;;;;13.67;5.17;;;14.20;99.90;;;;;;5082447;28;20212;-69
2021/06/22 05:12:40;;;;;;;11.07;4.67;;;14.30;99.90;;;;;;5077724;28;20210;-69
2021/06/22 05:15:08;;;;;;;12.47;4.67;;;14.30;99.90;;;;;;5076607;28;20197;-69
2021/06/22 05:17:35;;;;;;;12.87;4.67;;;14.30;99.90;;;;;;5071396;28;20209;-69
2021/06/22 05:20:02;;;;;;;14.60;4.90;;;14.50;99.90;;;;;;5072681;28;20206;-69
2021/06/22 05:22:30;;;;;;;11.90;5.17;;;14.60;99.90;;;;;;5079786;28;20201;-69
2021/06/22 05:24:57;;;;;;;9.97;4.70;;;14.70;99.90;;;;;;5087417;28;20193;-69
2021/06/22 05:27:23;;;;;;;15.13;5.10;;;14.50;99.90;;;;;;5071458;28;20688;-69
2021/06/22 05:29:50;;;;;;;11.43;5.40;;;14.60;99.90;;;;;;5087963;28;20202;-69
2021/06/22 05:32:17;;;;;;;10.27;4.90;;;14.70;99.90;;;;;;5089991;28;20201;-69
2021/06/22 05:34:44;;;;;;;11.17;4.83;;;14.90;99.90;;;;;;5089294;28;20255;-69
2021/06/22 05:37:11;;;;;;;8.47;4.47;;;14.70;99.90;;;;;;5086778;28;20569;-69
2021/06/22 05:39:39;;;;;;;14.50;6.03;;;14.90;99.90;;;;;;5081081;28;20201;-69
2021/06/22 05:42:07;;;;;;;13.17;5.20;;;14.80;99.90;;;;;;5090287;28;20205;-69
2021/06/22 05:44:34;;;;;;;10.33;4.87;;;14.70;99.90;;;;;;5088867;28;20212;-69
2021/06/22 05:47:00;;;;;;;11.00;5.23;;;14.80;99.90;;;;;;5084205;28;20223;-69
2021/06/22 05:49:27;;;;;;;12.73;5.80;;;14.70;99.90;;;;;;5082908;28;20208;-69
2021/06/22 05:51:54;;;;;;;20.20;5.30;;;14.70;99.90;;;;;;5090009;28;20194;-69
2021/06/22 05:54:21;;;;;;;9.53;4.87;;;14.70;99.90;;;;;;5093147;28;20308;-68
2021/06/22 05:56:50;;;;;;;10.20;5.57;;;14.60;99.90;;;;;;5084108;28;20205;-69
2021/06/22 05:59:16;;;;;;;14.10;5.50;;;14.60;99.90;;;;;;5088221;28;20233;-69
2021/06/22 06:01:43;;;;;;;10.43;5.03;;;14.60;99.90;;;;;;5080036;28;20194;-69
2021/06/22 06:04:10;;;;;;;13.43;5.23;;;14.70;99.90;;;;;;5078397;28;20289;-69
2021/06/22 06:06:37;;;;;;;10.40;5.50;;;14.70;99.90;;;;;;5075092;28;20222;-69
2021/06/22 06:09:04;;;;;;;16.80;6.90;;;14.80;99.90;;;;;;5080673;28;20209;-69
2021/06/22 06:11:31;;;;;;;9.37;5.10;;;14.80;99.90;;;;;;5081556;28;20208;-70
2021/06/22 06:13:59;;;;;;;8.17;5.03;;;14.90;99.90;;;;;;5081219;28;20207;-69
2021/06/22 06:16:26;;;;;;;9.10;5.60;;;15.00;99.90;;;;;;5073588;28;20565;-69
2021/06/22 06:18:53;;;;;;;10.53;5.77;;;15.00;99.90;;;;;;5073866;28;20201;-69
2021/06/22 06:21:20;;;;;;;11.53;5.50;;;15.00;99.90;;;;;;5083410;28;20651;-69
2021/06/22 06:23:49;;;;;;;13.13;6.60;;;15.00;99.90;;;;;;5086672;28;20205;-69
2021/06/22 06:26:18;;;;;;;14.33;7.47;;;15.10;99.90;;;;;;5078929;28;20574;-69
2021/06/22 06:28:47;;;;;;;14.73;8.17;;;15.30;99.90;;;;;;5092510;28;20288;-69
2021/06/22 06:31:15;;;;;;;15.63;7.90;;;15.40;99.90;;;;;;5080891;28;20264;-69
2021/06/22 06:33:42;;;;;;;15.00;7.83;;;15.30;99.90;;;;;;5090617;28;20206;-69
2021/06/22 06:36:09;;;;;;;13.70;8.70;;;15.30;99.90;;;;;;5092162;28;20208;-69
2021/06/22 06:38:36;;;;;;;17.10;8.53;;;15.40;99.90;;;;;;5083139;28;20224;-69
2021/06/22 06:41:03;;;;;;;15.13;8.93;;;15.10;99.90;;;;;;5091729;28;20206;-69
2021/06/22 06:43:30;;;;;;;20.67;10.83;;;15.40;99.90;;;;;;5087956;28;20212;-69
2021/06/22 06:45:57;;;;;;;19.43;9.10;;;15.40;99.90;;;;;;5085214;28;20206;-69
2021/06/22 06:48:26;;;;;;;19.67;10.27;;;15.40;99.90;;;;;;5090643;28;20217;-69
2021/06/22 06:50:53;;;;;;;17.63;10.80;;;15.30;99.90;;;;;;5089553;28;20201;-69
2021/06/22 06:53:20;;;;;;;15.33;10.93;;;15.30;99.90;;;;;;5092244;28;20197;-69
2021/06/22 06:55:47;;;;;;;18.03;10.50;;;15.40;99.90;;;;;;5078719;28;20831;-69
2021/06/22 06:58:14;;;;;;;19.53;9.93;;;15.20;99.90;;;;;;5088826;28;20705;-69
2021/06/22 07:00:41;;;;;;;16.47;8.40;;;15.10;99.90;;;;;;5085002;28;20208;-69
2021/06/22 07:03:09;;;;;;;14.10;7.40;;;15.50;99.90;;;;;;5077400;28;20206;-68
2021/06/22 07:05:37;;;;;;;11.40;6.27;;;15.50;99.90;;;;;;5082785;28;20297;-69
2021/06/22 07:08:05;;;;;;;10.03;6.07;;;15.40;99.90;;;;;;5076841;28;20222;-69
2021/06/22 07:10:33;;;;;;;11.20;7.10;;;15.60;99.90;;;;;;5086092;28;20202;-69
2021/06/22 07:13:03;;;;;;;14.37;7.43;;;15.80;99.90;;;;;;5078517;28;20252;-69
2021/06/22 07:15:30;;;;;;;14.80;7.67;;;15.80;99.90;;;;;;5072593;28;20248;-69
2021/06/22 07:17:57;;;;;;;10.80;7.47;;;15.90;99.90;;;;;;5079460;28;20203;-69
2021/06/22 07:20:24;;;;;;;14.30;7.97;;;16.10;99.90;;;;;;5085246;28;20567;-69
2021/06/22 07:22:52;;;;;;;12.07;7.20;;;16.10;99.90;;;;;;5085337;28;20199;-69
2021/06/22 07:25:20;;;;;;;12.80;7.73;;;16.10;99.90;;;;;;5072532;28;20217;-69
2021/06/22 07:27:47;;;;;;;12.33;7.90;;;16.10;99.90;;;;;;5072370;28;20214;-69
2021/06/22 07:30:16;;;;;;;11.87;7.53;;;16.20;99.90;;;;;;5072064;28;20210;-69
2021/06/22 07:32:43;;;;;;;12.07;7.03;;;16.10;99.90;;;;;;5086499;28;20198;-69
2021/06/22 07:35:11;;;;;;;11.47;7.60;;;16.30;99.90;;;;;;5086485;28;20202;-71
2021/06/22 07:37:40;;;;;;;15.83;7.47;;;16.40;99.90;;;;;;5083817;28;20202;-69
2021/06/22 07:40:09;;;;;;;17.23;8.10;;;16.10;99.90;;;;;;5078148;28;20209;-69
2021/06/22 07:42:36;;;;;;;15.37;6.83;;;16.30;99.90;;;;;;5072227;28;20561;-69
2021/06/22 07:45:04;;;;;;;10.87;5.87;;;16.50;99.90;;;;;;5083305;28;20206;-69
2021/06/22 07:47:31;;;;;;;13.33;6.53;;;16.50;99.90;;;;;;5073714;28;20612;-69
2021/06/22 07:49:57;;;;;;;11.53;6.20;;;16.40;99.90;;;;;;5071659;28;20206;-69
2021/06/22 07:52:24;;;;;;;11.70;5.87;;;16.60;99.90;;;;;;5072272;28;20202;-69
2021/06/22 07:54:51;;;;;;;12.87;6.13;;;16.60;99.90;;;;;;5071568;28;20199;-69
2021/06/22 07:57:19;;;;;;;11.30;5.17;;;16.80;99.90;;;;;;5082924;28;20566;-69
2021/06/22 07:59:46;;;;;;;8.53;4.97;;;16.70;99.90;;;;;;5071300;28;20194;-69
2021/06/22 08:02:13;;;;;;;10.83;4.93;;;16.60;99.90;;;;;;5072104;28;20289;-69
2021/06/22 08:07:09;;;;;;;9.93;5.40;;;16.60;99.90;;;;;;5058494;28;20226;-75
2021/06/22 08:09:36;;;;;;;8.73;4.50;;;16.60;99.90;;;;;;5069339;28;20671;-74
2021/06/22 08:12:03;;;;;;;8.17;4.63;;;16.70;99.90;;;;;;5071768;28;20723;-74
2021/06/22 08:14:31;;;;;;;10.83;5.00;;;16.50;99.90;;;;;;5071307;28;20685;-74
2021/06/22 08:16:58;;;;;;;10.47;4.73;;;16.80;99.90;;;;;;5071694;28;20202;-74
2021/06/22 08:19:25;;;;;;;12.23;4.53;;;16.80;99.90;;;;;;5061081;28;20203;-74
2021/06/22 08:21:53;;;;;;;8.23;4.23;;;16.80;99.90;;;;;;5081827;28;20564;-75
2021/06/22 08:24:20;;;;;;;7.70;4.30;;;16.40;99.90;;;;;;5069952;28;20297;-75
2021/06/22 08:26:46;;;;;;;13.03;3.93;;;16.40;99.90;;;;;;5067496;28;20213;-75
2021/06/22 08:29:13;;;;;;;9.43;4.63;;;16.40;99.90;;;;;;5057934;28;20218;-75
2021/06/22 08:31:41;;;;;;;10.87;4.30;;;16.20;99.90;;;;;;5071222;28;20202;-75
2021/06/22 08:34:08;;;;;;;7.87;3.87;;;16.30;99.90;;;;;;5068496;28;20298;-76
2021/06/22 08:36:35;;;;;;;6.67;3.60;;;16.60;99.90;;;;;;5070958;28;20198;-77
2021/06/22 08:39:02;;;;;;;8.83;4.03;;;16.70;99.90;;;;;;5068815;28;20285;-76
2021/06/22 08:41:30;;;;;;;14.43;4.60;;;16.70;99.90;;;;;;5067639;28;20202;-73
2021/06/22 08:43:58;;;;;;;9.03;3.50;;;16.60;99.90;;;;;;5063562;28;20207;-76
2021/06/22 08:46:25;;;;;;;6.83;3.80;;;16.90;99.90;;;;;;5072269;28;20618;-77
2021/06/22 08:48:55;;;;;;;8.53;3.67;;;16.90;99.90;;;;;;5085972;28;20221;-76
2021/06/22 08:51:23;;;;;;;8.73;3.60;;;16.90;99.90;;;;;;5082427;28;20197;-77
2021/06/22 08:53:51;;;;;;;9.43;3.33;;;17.10;99.90;;;;;;5080586;28;20217;-77
2021/06/22 08:56:18;;;;;;;10.03;3.60;;;17.30;99.90;;;;;;5065263;28;20225;-77
2021/06/22 08:58:45;;;;;;;6.37;3.40;;;17.60;99.90;;;;;;5067456;28;20573;-77
2021/06/22 09:01:13;;;;;;;10.67;3.57;;;17.60;99.90;;;;;;5069567;28;20729;-77
2021/06/22 09:03:41;;;;;;;6.65;3.35;;;17.70;99.90;;;;;;5067180;28;20285;-77
2021/06/22 09:06:09;;;;;;;11.07;3.78;;;17.80;99.90;;;;;;5071364;28;20216;-76
2021/06/22 09:08:36;;;;;;;9.52;3.95;;;17.70;99.90;;;;;;5063837;28;20592;-76
2021/06/22 09:11:06;;;;;;;5.55;3.38;;;17.50;99.90;;;;;;5071144;28;20213;-76
2021/06/22 09:13:34;;;;;;;8.50;3.15;;;17.60;99.90;;;;;;5067872;28;20202;-77
2021/06/22 09:16:01;;;;;;;4.70;2.60;;;17.70;99.90;;;;;;5071164;28;20210;-77
2021/06/22 09:18:33;;;;;;;4.55;2.63;;;17.50;99.90;;;;;;5065207;28;20227;-76
2021/06/22 09:21:02;;;;;;;4.85;2.65;;;17.60;99.90;;;;;;5076689;28;20272;-77
2021/06/22 09:23:32;;;;;;;5.88;2.55;;;17.40;99.90;;;;;;5071392;28;20239;-77
2021/06/22 09:25:59;;;;;;;4.93;2.70;;;17.40;99.90;;;;;;5066190;28;20569;-77
2021/06/22 09:28:29;;;;;;;6.18;2.60;;;17.30;99.90;;;;;;5074250;28;20224;-77
2021/06/22 09:30:59;;;;;;;8.10;3.00;;;17.20;99.90;;;;;;5072287;28;20655;-77
2021/06/22 09:33:31;;;;;;;6.28;3.00;;;16.90;99.90;;;;;;5074729;28;20208;-77
2021/06/22 09:36:04;;;;;;;6.60;3.40;;;17.10;99.90;;;;;;5069950;28;20546;-77
2021/06/22 09:38:34;;;;;;;7.40;3.17;;;17.30;99.90;;;;;;5074484;28;20224;-77
2021/06/22 09:41:11;;;;;;;7.22;3.20;;;17.10;99.90;;;;;;5071106;28;20213;-77
2021/06/22 09:43:40;;;;;;;6.13;2.90;;;17.30;99.90;;;;;;5072986;28;20569;-77
2021/06/22 09:46:08;;;;;;;6.65;2.97;;;17.40;99.90;;;;;;5071200;28;20206;-77
2021/06/22 09:48:47;;;;;;;8.55;2.95;;;17.10;99.90;;;;;;5074637;28;20226;-77
2021/06/22 09:51:14;;;;;;;4.95;2.92;;;16.80;99.90;;;;;;5062251;28;20263;-77
2021/06/22 09:53:42;;;;;;;5.63;2.92;;;16.90;99.90;;;;;;5074558;28;20198;-77
2021/06/22 09:56:21;;;;;;;4.03;2.78;;;17.10;99.90;;;;;;5074012;28;20206;-77
2021/06/22 09:58:48;;;;;;;9.10;2.70;;;17.10;99.90;;;;;;5074390;28;20198;-77
2021/06/22 10:01:26;;;;;;;4.00;2.93;;;16.90;99.90;;;;;;5073990;28;20244;-77
2021/06/22 10:03:54;;;;;;;8.33;3.20;;;16.90;99.90;;;;;;5073382;28;20194;-77
2021/06/22 10:06:21;;;;;;;8.95;3.00;;;17.00;99.90;;;;;;5070183;28;20206;-76
2021/06/22 10:08:54;;;;;;;3.80;2.90;;;17.00;99.90;;;;;;5068236;28;20232;-77
2021/06/22 10:11:31;;;;;;;7.80;3.22;;;17.00;99.90;;;;;;5069079;28;20285;-77
2021/06/22 10:13:58;;;;;;;6.97;2.70;;;17.30;99.90;;;;;;5074291;28;20205;-77
2021/06/22 10:16:29;;;;;;;5.75;2.70;;;17.20;99.90;;;;;;5064014;28;20194;-77
2021/06/22 10:18:56;;;;;;;6.50;2.50;;;17.30;99.90;;;;;;5068662;28;20203;-77
2021/06/22 10:21:23;;;;;;;5.83;2.53;;;17.80;99.90;;;;;;5072626;28;20209;-77
2021/06/22 10:23:52;;;;;;;6.97;2.90;;;17.80;99.90;;;;;;5069720;28;20224;-77
2021/06/22 10:26:20;;;;;;;6.70;3.17;;;17.60;99.90;;;;;;5073909;28;20206;-77
2021/06/22 10:28:47;;;;;;;6.57;2.80;;;17.80;99.90;;;;;;5072106;28;20236;-77
2021/06/22 10:31:14;;;;;;;4.85;2.53;;;17.90;99.90;;;;;;5071163;28;20212;-77
2021/06/22 10:33:41;;;;;;;7.50;2.58;;;18.20;99.90;;;;;;5070745;28;20202;-76
2021/06/22 10:36:10;;;;;;;6.33;2.70;;;18.20;99.90;;;;;;5069058;28;20469;-77
2021/06/22 10:38:38;;;;;;;7.05;3.38;;;18.10;99.90;;;;;;5072897;28;20202;-76
2021/06/22 10:41:08;;;;;;;8.50;2.90;;;18.10;99.90;;;;;;5069191;28;20203;-76
2021/06/22 10:43:36;;;;;;;6.70;2.83;;;18.40;99.90;;;;;;5064343;28;20210;-76
2021/06/22 10:46:05;;;;;;;8.63;3.47;;;18.30;99.90;;;;;;5073454;28;20652;-76
2021/06/22 10:48:42;;;;;;;7.28;2.88;;;18.30;99.90;;;;;;5072142;28;20275;-76
2021/06/22 10:51:43;;;;;;;6.25;3.42;;;18.30;99.90;;;;;;5072110;28;20647;-76
2021/06/22 10:54:13;;;;;;;7.45;3.15;;;18.10;99.90;;;;;;4981364;28;20204;-76
2021/06/22 10:56:43;;;;;;;12.02;5.22;;;18.00;99.90;;;;;;5055198;28;20222;-76
2021/06/22 10:59:23;;;;;;;6.97;3.55;;;18.00;99.90;;;;;;5061649;28;20237;-76
2021/06/22 11:02:01;;;;;;;7.20;3.00;;;17.80;99.90;;;;;;5066588;28;20202;-76
2021/06/22 11:04:28;;;;;;;6.40;3.03;;;17.80;99.90;;;;;;5068962;28;20260;-77
2021/06/22 11:07:25;;;;;;;8.38;3.17;;;17.80;99.90;;;;;;5071726;28;20568;-77
2021/06/22 11:10:14;;;;;;;9.63;3.28;;;18.00;99.90;;;;;;5072427;28;20258;-77
2021/06/22 11:12:57;;;;;;;4.40;2.92;;;18.10;99.90;;;;;;5073093;28;20293;-77
2021/06/22 11:15:45;;;;;;;10.90;3.05;;;18.40;99.90;;;;;;5058593;28;20203;-76
2021/06/22 11:18:16;;;;;;;10.80;3.67;;;18.30;99.90;;;;;;5066311;28;20203;-77
2021/06/22 11:20:44;;;;;;;5.43;3.03;;;18.30;99.90;;;;;;5067925;28;21599;-77
2021/06/22 11:23:12;;;;;;;10.98;3.40;;;18.30;99.90;;;;;;5065648;28;20293;-77
2021/06/22 11:25:51;;;;;;;7.20;3.17;;;18.90;99.90;;;;;;5069347;28;20229;-77
2021/06/22 11:28:21;;;;;;;4.10;2.70;;;19.40;99.90;;;;;;5062848;28;20600;-76
2021/06/22 11:30:58;;;;;;;11.35;3.00;;;19.80;99.90;;;;;;5068960;28;20682;-77
2021/06/22 11:33:39;;;;;;;5.25;2.58;;;19.80;99.90;;;;;;5072841;28;20209;-77
2021/06/22 11:36:29;;;;;;;5.03;2.83;;;19.60;99.90;;;;;;5072212;28;20233;-77
2021/06/22 11:39:24;;;;;;;4.95;2.72;;;19.40;99.90;;;;;;5066824;28;20560;-76
2021/06/22 11:42:22;;;;;;;6.47;2.45;;;19.60;99.90;;;;;;5055882;28;20278;-76
2021/06/22 11:44:57;;;;;;;4.72;2.50;;;19.40;99.90;;;;;;5059248;28;20194;-77
2021/06/22 11:47:50;;;;;;;8.45;2.58;;;19.30;99.90;;;;;;5071499;28;20206;-77
2021/06/22 11:50:42;;;;;;;3.85;2.15;;;19.70;99.90;;;;;;5070810;28;20222;-77
2021/06/22 11:53:11;;;;;;;5.45;2.50;;;20.40;99.90;;;;;;5061816;28;20216;-77
2021/06/22 11:55:50;;;;;;;4.97;2.10;;;20.30;99.90;;;;;;5065211;28;20249;-76
2021/06/22 11:58:22;;;;;;;5.43;2.53;;;21.20;99.90;;;;;;5063705;28;20852;-77
2021/06/22 12:00:55;;;;;;;5.90;2.42;;;21.90;99.90;;;;;;5068791;28;20706;-77
2021/06/22 12:03:30;;;;;;;8.23;3.10;;;20.50;99.90;;;;;;5076000;28;20210;-76
2021/06/22 12:06:09;;;;;;;7.65;2.95;;;19.80;99.90;;;;;;5042842;28;20212;-76
2021/06/22 12:08:38;;;;;;;8.63;3.33;;;19.50;99.90;;;;;;5069370;28;20952;-76
2021/06/22 12:11:05;;;;;;;5.95;2.60;;;19.40;99.90;;;;;;5060395;28;20348;-76
2021/06/22 12:13:34;;;;;;;4.85;2.30;;;19.30;99.90;;;;;;5067357;28;20238;-76
2021/06/22 12:16:16;;;;;;;6.05;2.47;;;19.30;99.90;;;;;;5068309;28;20220;-76
2021/06/22 12:18:43;;;;;;;6.63;2.63;;;19.10;99.90;;;;;;5056577;28;20285;-76
2021/06/22 12:21:10;;;;;;;5.00;2.65;;;19.30;99.90;;;;;;5075709;28;20232;-76
2021/06/22 12:23:40;;;;;;;7.88;2.70;;;19.30;99.90;;;;;;5075561;28;20215;-74
2021/06/22 12:26:07;;;;;;;5.47;2.50;;;19.40;99.90;;;;;;5067235;28;20214;-74
2021/06/22 12:28:35;;;;;;;7.43;2.60;;;19.40;99.90;;;;;;5063801;28;20217;-76
2021/06/22 12:31:04;;;;;;;6.25;2.75;;;19.40;99.90;;;;;;5061857;28;20272;-74
2021/06/22 12:33:38;;;;;;;7.35;2.50;;;19.30;99.90;;;;;;5073103;28;20229;-74
2021/06/22 12:36:07;;;;;;;6.68;2.72;;;19.60;99.90;;;;;;5066378;28;20624;-74
2021/06/22 12:38:34;;;;;;;4.35;2.60;;;19.70;99.90;;;;;;5052047;28;20513;-74
2021/06/22 12:41:03;;;;;;;6.07;2.97;;;19.30;99.90;;;;;;5044539;28;20298;-68
2021/06/22 12:43:44;;;;;;;6.93;3.30;;;19.40;99.90;;;;;;5053507;28;20213;-70
2021/06/22 12:46:12;;;;;;;6.22;3.03;;;19.40;99.90;;;;;;5046719;28;20202;-70
2021/06/22 12:48:42;;;;;;;5.95;3.20;;;19.30;99.90;;;;;;5055843;28;20747;-70
2021/06/22 12:51:09;;;;;;;8.15;3.08;;;19.50;99.90;;;;;;5051772;28;20199;-70